Details From MMTP - Tapachula Intl
To MRLB - Daniel Oduber Quiros Intl
Flight Number -
Tags Decoded
Created
Modified
Stats Distance 497 nm / 920 km
Max Altitude 0 ft / 0 m
Waypoints 11
Social Downloads 1
Likes 0
Share VATSIM

Download

Looking for another format? Having issues loading an existing format? Contact us
Advertisement - Login to hide

Notes

Decoded

Route

MMTP MGSJ DUNEL CAT23 GABOS TUKOR IMOLA ELENA LIB05 LIB33 MRLB

ID Type Via Altitude Latitude Longitude Leg Dist Tot Dist Heading (true) Name
O MMTP APT - 0 ft / 0 m 14.78922˚ -92.37769˚ - 0 nm - -
MGSJ APT - 0 ft / 0 m 13.94456˚ -90.83951˚ 102 nm 102 nm 119° / 120° SAN JOSE
DUNEL FIX - 0 ft / 0 m 13.73167˚ -90.10778˚ 44 nm 147 nm 107° / 107° -
CAT23 FIX - 0 ft / 0 m 13.34388˚ -89.22730˚ 56 nm 203 nm 114° / 114° -
GABOS FIX - 0 ft / 0 m 13.09167˚ -88.27000˚ 57 nm 261 nm 105° / 105° -
TUKOR FIX - 0 ft / 0 m 12.88667˚ -87.81667˚ 29 nm 291 nm 115° / 115° -
IMOLA FIX - 0 ft / 0 m 11.20972˚ -85.79639˚ 155 nm 446 nm 130° / 131° -
ELENA FIX - 0 ft / 0 m 10.86639˚ -85.88917˚ 21 nm 468 nm 195° / 195° -
LIB05 FIX - 0 ft / 0 m 10.55869˚ -85.62376˚ 24 nm 492 nm 140° / 140° -
LIB33 FIX - 0 ft / 0 m 10.57524˚ -85.59403˚ 2 nm 494 nm 60° / 60° -
O MRLB APT - 0 ft / 0 m 10.58905˚ -85.55629˚ 2 nm 496 nm 70° / 70° -

Altitude Profile

Advertisement - Login to hide

Weather


0- 5 10 15 20 25 30 35+ Temperature / ° C

Clouds and Precipitation
Forecast for 2017-12-12 18:00 UTC. Updated an hour ago

Ground ~20,000 ft ~40,000 ft Winds

MMTP

Details ICAO MMTP (TAP)
Name TAPACHULA INTL
Region Mexico
Timezone America/Mexico_City (UTC-6.0)
Stats Elevation 97 ft / 30 m (AMSL)
Location 14.794337° -92.370024°
Runways 1
Magnetic Variation 1.983° E

METAR

MMTP 121540Z 00000KT 10SM SCT020 29/21 A3000 RMK 8/500

Decode

TAF

TAF MMTP 121123Z 1212/1318 00000KT P6SM SCT100 BKN250 FM121800 24010KT P6SM SCT020 BKN250 FM130100 00000KT P6SM SCT100 SCT250 FM131700 24010KT P6SM SCT030 BKN250

Decode

Departure Runways

ID Width Length Bearing (true) Bearing (mag) Surface Threshold Offset Overrun Length
05 148 ft / 45 m 6,577 ft / 2,005 m 55.38° 53.40° Asphalt 0 ft / 0 m 198 ft / 60 m
23 148 ft / 45 m 6,577 ft / 2,005 m 235.38° 233.40° Asphalt 0 ft / 0 m 198 ft / 60 m

MRLB

Details ICAO MRLB (LIR)
Name Daniel Oduber Quiros Intl
Region Costa Rica
Timezone America/Costa_Rica (UTC-6.0)
Stats Elevation 270 ft / 82 m (AMSL)
Location 10.593289° -85.544410°
Runways 1
Magnetic Variation 1.040° W

METAR

MRLB 121600Z 28004KT CAVOK 28/18 A2995 NOSIG

Decode

TAF

TAF AMD MRLB 121200Z 1212/1312 07010KT 9999 FEW045 TX31/1219Z TN21/1212Z

Decode

Destination Runways

ID Width Length Bearing (true) Bearing (mag) Surface Threshold Offset Overrun Length
07 148 ft / 45 m 9,068 ft / 2,764 m 70.05° 71.09° Asphalt 0 ft / 0 m 0 ft / 0 m
25 148 ft / 45 m 9,068 ft / 2,764 m 250.05° 251.09° Asphalt 0 ft / 0 m 0 ft / 0 m

Popular Alternatives